createdAt,value
2017-09-01T00:00:03.152Z,15.1
2017-09-01T00:15:03.091Z,15.1
2017-09-01T00:30:02.680Z,15.1
2017-09-01T00:45:03.263Z,15.1
2017-09-01T01:00:02.879Z,15
2017-09-01T01:15:03.486Z,15
2017-09-01T01:30:03.156Z,14.9
2017-09-01T01:45:02.754Z,14.9
2017-09-01T02:00:03.367Z,14.9
2017-09-01T02:15:02.987Z,14.9
2017-09-01T02:30:02.680Z,14.8
2017-09-01T02:45:03.252Z,14.8
2017-09-01T03:00:02.881Z,14.8
2017-09-01T03:15:03.466Z,14.8
2017-09-01T03:30:03.150Z,14.8
2017-09-01T03:45:02.746Z,14.7
2017-09-01T04:00:03.282Z,14.7
2017-09-01T04:15:02.890Z,14.6
2017-09-01T04:30:02.539Z,14.6
2017-09-01T04:45:03.124Z,14.6
2017-09-01T05:00:02.714Z,14.6
2017-09-01T05:15:03.319Z,14.5
2017-09-01T05:30:02.936Z,14.5
2017-09-01T05:45:02.533Z,14.5
2017-09-01T06:00:03.160Z,14.4
2017-09-01T06:15:02.685Z,14.4
2017-09-01T06:30:03.482Z,14.4
2017-09-01T06:45:03.073Z,14.4
2017-09-01T07:00:02.705Z,14.4
2017-09-01T07:15:03.248Z,14.4
2017-09-01T07:30:02.881Z,14.3
2017-09-01T07:45:03.489Z,14.3
2017-09-01T08:00:03.065Z,14.3
2017-09-01T08:15:02.616Z,14.3
2017-09-01T08:30:03.285Z,14.3
2017-09-01T08:45:02.849Z,14.2
2017-09-01T09:00:03.433Z,14.2
2017-09-01T09:15:03.027Z,14.2
2017-09-01T09:30:02.695Z,14.2
2017-09-01T09:45:03.331Z,14.3
2017-09-01T10:00:02.862Z,14.3
2017-09-01T10:15:03.443Z,14.3
2017-09-01T10:30:03.108Z,14.3
2017-09-01T10:45:02.659Z,14.3
2017-09-01T11:00:03.343Z,14.3
2017-09-01T11:15:02.862Z,14.3
2017-09-01T11:30:02.542Z,14.4
2017-09-01T11:45:03.169Z,14.4
2017-09-01T12:00:02.685Z,14.4
2017-09-01T12:15:03.256Z,14.4
2017-09-01T12:30:02.946Z,14.4
2017-09-01T12:45:02.577Z,14.4
2017-09-01T13:00:03.163Z,14.4
2017-09-01T13:15:02.682Z,14.4
2017-09-01T13:30:03.366Z,14.4
2017-09-01T13:45:02.957Z,14.4
2017-09-01T14:00:02.539Z,14.4
2017-09-01T14:15:03.167Z,14.4
2017-09-01T14:30:02.794Z,14.4
2017-09-01T14:45:03.349Z,14.4
2017-09-01T15:00:02.939Z,14.4
2017-09-01T15:15:02.561Z,14.4
2017-09-01T15:30:03.172Z,14.4
2017-09-01T15:45:02.765Z,14.4
2017-09-01T16:00:03.375Z,14.3
2017-09-01T16:15:02.962Z,14.2
2017-09-01T16:30:02.563Z,14.2
2017-09-01T16:45:03.519Z,14.1
2017-09-01T17:00:03.096Z,14.1
2017-09-01T17:15:02.682Z,14
2017-09-01T17:30:03.342Z,13.9
2017-09-01T17:45:02.926Z,13.9
2017-09-01T18:00:02.557Z,13.9
2017-09-01T18:15:03.122Z,13.8
2017-09-01T18:30:02.801Z,13.8
2017-09-01T18:45:03.384Z,13.8
2017-09-01T19:00:02.973Z,13.7
2017-09-01T19:15:02.537Z,13.7
2017-09-01T19:30:03.161Z,13.7
2017-09-01T19:45:02.783Z,13.7
2017-09-01T20:00:03.333Z,13.6
2017-09-01T20:15:02.914Z,13.6
2017-09-01T20:30:02.611Z,13.6
2017-09-01T20:45:03.188Z,13.7
2017-09-01T21:00:02.740Z,13.7
2017-09-01T21:15:03.334Z,13.8
2017-09-01T21:30:03.060Z,13.8
2017-09-01T21:45:02.585Z,13.8
2017-09-01T22:00:03.155Z,13.8
2017-09-01T22:15:02.744Z,13.8
2017-09-01T22:30:03.411Z,13.8
2017-09-01T22:45:02.991Z,13.8
2017-09-01T23:00:02.566Z,13.8
2017-09-01T23:15:03.128Z,13.8
2017-09-01T23:30:02.821Z,13.8
2017-09-01T23:45:03.406Z,13.8
